createdAt,value
2017-12-25T00:00:50.755Z,0
2017-12-25T00:01:51.009Z,0
2017-12-25T00:02:51.014Z,0
2017-12-25T00:03:50.565Z,0
2017-12-25T00:04:50.805Z,0
2017-12-25T00:05:51.054Z,0
2017-12-25T00:06:50.330Z,0
2017-12-25T00:07:50.866Z,0
2017-12-25T00:08:51.090Z,0
2017-12-25T00:09:50.596Z,0
2017-12-25T00:10:51.123Z,0
2017-12-25T00:11:50.628Z,0
2017-12-25T00:12:50.892Z,0
2017-12-25T00:13:51.151Z,0
2017-12-25T00:14:50.912Z,0
2017-12-25T00:15:50.925Z,0
2017-12-25T00:16:50.691Z,0
2017-12-25T00:17:50.780Z,0
2017-12-25T00:18:50.716Z,0
2017-12-25T00:19:50.985Z,0
2017-12-25T00:20:50.995Z,0
2017-12-25T00:21:51.263Z,0
2017-12-25T00:22:50.771Z,0
2017-12-25T00:23:50.791Z,0
2017-12-25T00:24:51.315Z,0
2017-12-25T00:25:51.076Z,0
2017-12-25T00:26:51.088Z,0
2017-12-25T00:27:51.204Z,0
2017-12-25T00:28:51.107Z,0
2017-12-25T00:29:51.375Z,0
2017-12-25T00:30:51.394Z,0
2017-12-25T00:31:51.164Z,0
2017-12-25T00:32:50.963Z,0
2017-12-25T00:33:51.188Z,0
2017-12-25T00:34:50.943Z,0
2017-12-25T00:35:51.206Z,0
2017-12-25T00:36:51.231Z,0
2017-12-25T00:37:50.737Z,0
2017-12-25T00:38:51.504Z,0
2017-12-25T00:39:50.781Z,0
2017-12-25T00:40:51.030Z,0
2017-12-25T00:41:50.784Z,0
2017-12-25T00:42:51.306Z,0
2017-12-25T00:43:51.324Z,0
2017-12-25T00:44:51.350Z,0
2017-12-25T00:45:51.347Z,0
2017-12-25T00:46:51.612Z,0
2017-12-25T00:47:51.449Z,0
2017-12-25T00:48:51.150Z,0
2017-12-25T00:49:51.410Z,0
2017-12-25T00:50:50.915Z,0
2017-12-25T00:51:51.682Z,0
2017-12-25T00:52:51.209Z,0
2017-12-25T00:53:51.461Z,0
2017-12-25T00:54:51.728Z,0
2017-12-25T00:55:51.485Z,0
2017-12-25T00:56:51.753Z,0
2017-12-25T00:57:51.266Z,0
2017-12-25T00:58:51.276Z,0
2017-12-25T00:59:51.797Z,0
2017-12-25T01:00:51.553Z,0
2017-12-25T01:01:51.822Z,0
2017-12-25T01:02:52.392Z,0
2017-12-25T01:03:51.604Z,0
2017-12-25T01:04:51.611Z,0
2017-12-25T01:05:51.886Z,0
2017-12-25T01:06:51.636Z,0
2017-12-25T01:07:51.150Z,0
2017-12-25T01:08:51.418Z,0
2017-12-25T01:09:51.679Z,0
2017-12-25T01:10:51.183Z,0
2017-12-25T01:11:51.453Z,0
2017-12-25T01:12:51.467Z,0
2017-12-25T01:13:51.484Z,0
2017-12-25T01:14:51.242Z,0
2017-12-25T01:15:52.010Z,0
2017-12-25T01:16:52.026Z,0
2017-12-25T01:17:52.094Z,0
2017-12-25T01:18:52.046Z,0
2017-12-25T01:19:52.064Z,0
2017-12-25T01:20:52.082Z,0
2017-12-25T01:21:52.095Z,0
2017-12-25T01:22:52.132Z,0
2017-12-25T01:23:51.629Z,0
2017-12-25T01:24:51.883Z,0
2017-12-25T01:25:51.889Z,0
2017-12-25T01:26:51.907Z,0
2017-12-25T01:27:51.668Z,0
2017-12-25T01:28:51.695Z,0
2017-12-25T01:29:51.437Z,0
2017-12-25T01:30:51.947Z,0
2017-12-25T01:31:51.716Z,0
2017-12-25T01:32:52.307Z,0
2017-12-25T01:33:51.990Z,0
2017-12-25T01:34:52.254Z,0
2017-12-25T01:35:52.271Z,0
2017-12-25T01:36:52.286Z,0
2017-12-25T01:37:52.297Z,0
2017-12-25T01:38:52.061Z,0
2017-12-25T01:39:51.827Z,0
2017-12-25T01:40:52.087Z,0
2017-12-25T01:41:51.845Z,0
2017-12-25T01:42:52.111Z,0
2017-12-25T01:43:52.396Z,0
2017-12-25T01:44:51.888Z,0
2017-12-25T01:45:52.406Z,0
2017-12-25T01:46:51.650Z,0
2017-12-25T01:47:52.225Z,0
2017-12-25T01:48:52.444Z,0
2017-12-25T01:49:51.946Z,0
2017-12-25T01:50:51.963Z,0
2017-12-25T01:51:52.230Z,0
2017-12-25T01:52:51.987Z,0
2017-12-25T01:53:52.005Z,0
2017-12-25T01:54:52.263Z,0
2017-12-25T01:55:52.028Z,0
2017-12-25T01:56:52.544Z,0
2017-12-25T01:57:52.314Z,0
2017-12-25T01:58:52.322Z,0
2017-12-25T01:59:52.581Z,0
2017-12-25T02:00:52.602Z,0
2017-12-25T02:01:52.354Z,0
2017-12-25T02:02:52.414Z,0
2017-12-25T02:03:52.128Z,0
2017-12-25T02:04:52.140Z,0
2017-12-25T02:05:52.679Z,0
2017-12-25T02:06:52.484Z,0
2017-12-25T02:07:52.436Z,0
2017-12-25T02:08:52.445Z,0
2017-12-25T02:09:52.459Z,0
2017-12-25T02:10:51.966Z,0
2017-12-25T02:11:52.245Z,0
2017-12-25T02:12:52.862Z,0
2017-12-25T02:13:52.260Z,0
2017-12-25T02:14:52.523Z,0
2017-12-25T02:15:52.298Z,0
2017-12-25T02:16:52.803Z,0
2017-12-25T02:17:52.365Z,0
2017-12-25T02:18:52.824Z,0
2017-12-25T02:19:52.844Z,0
2017-12-25T02:20:52.098Z,0
2017-12-25T02:21:52.864Z,0
2017-12-25T02:22:52.891Z,0
2017-12-25T02:23:52.642Z,0
2017-12-25T02:24:52.656Z,0
2017-12-25T02:25:52.416Z,0
2017-12-25T02:26:52.685Z,0
2017-12-25T02:27:52.792Z,0
2017-12-25T02:28:52.965Z,0
2017-12-25T02:29:52.989Z,0
2017-12-25T02:30:52.238Z,0
2017-12-25T02:31:52.750Z,0
2017-12-25T02:32:52.811Z,0
2017-12-25T02:33:52.527Z,0
2017-12-25T02:34:52.790Z,0
2017-12-25T02:35:52.558Z,0
2017-12-25T02:36:52.827Z,0
2017-12-25T02:37:53.123Z,0
2017-12-25T02:38:52.850Z,0
2017-12-25T02:39:53.122Z,0
2017-12-25T02:40:52.868Z,0
2017-12-25T02:41:52.893Z,0
2017-12-25T02:42:52.901Z,0
2017-12-25T02:43:52.678Z,0
2017-12-25T02:44:52.939Z,0
2017-12-25T02:45:52.940Z,0
2017-12-25T02:46:52.700Z,0
2017-12-25T02:47:53.223Z,0
2017-12-25T02:48:53.236Z,0
2017-12-25T02:49:52.548Z,0
2017-12-25T02:50:53.260Z,0
2017-12-25T02:51:53.272Z,0
2017-12-25T02:52:52.532Z,0
2017-12-25T02:53:53.293Z,0
2017-12-25T02:54:52.809Z,0
2017-12-25T02:55:52.817Z,0
2017-12-25T02:56:53.338Z,0
2017-12-25T02:57:52.600Z,0
2017-12-25T02:58:52.860Z,0
2017-12-25T02:59:52.876Z,0
2017-12-25T03:00:53.156Z,0
2017-12-25T03:01:52.904Z,0
2017-12-25T03:02:52.917Z,0
2017-12-25T03:03:53.446Z,0
2017-12-25T03:04:53.239Z,0
2017-12-25T03:05:53.473Z,0
2017-12-25T03:06:53.218Z,0
2017-12-25T03:07:53.493Z,0
2017-12-25T03:08:52.996Z,0
2017-12-25T03:09:53.260Z,0
2017-12-25T03:10:53.528Z,0
2017-12-25T03:11:53.278Z,0
2017-12-25T03:12:53.041Z,0
2017-12-25T03:13:53.586Z,0
2017-12-25T03:14:53.328Z,0
2017-12-25T03:15:53.341Z,0
2017-12-25T03:16:53.596Z,0
2017-12-25T03:17:53.105Z,0
2017-12-25T03:18:53.129Z,0
2017-12-25T03:19:53.675Z,0
2017-12-25T03:20:53.672Z,0
2017-12-25T03:21:53.399Z,0
2017-12-25T03:22:53.109Z,0
2017-12-25T03:23:53.677Z,0
2017-12-25T03:24:53.200Z,0
2017-12-25T03:25:53.209Z,0
2017-12-25T03:26:53.475Z,0
2017-12-25T03:27:53.745Z,0
2017-12-25T03:28:53.748Z,0
2017-12-25T03:29:53.768Z,0
2017-12-25T03:30:53.789Z,0
2017-12-25T03:31:53.543Z,0
2017-12-25T03:32:53.550Z,0
2017-12-25T03:33:53.815Z,0
2017-12-25T03:34:53.179Z,0
2017-12-25T03:35:53.585Z,0
2017-12-25T03:36:53.095Z,0
2017-12-25T03:37:53.365Z,0
2017-12-25T03:38:53.374Z,0
2017-12-25T03:39:53.652Z,0
2017-12-25T03:40:53.905Z,0
2017-12-25T03:41:53.157Z,0
2017-12-25T03:42:53.176Z,0
2017-12-25T03:43:53.694Z,0
2017-12-25T03:44:53.950Z,0
2017-12-25T03:45:53.212Z,0
2017-12-25T03:46:53.224Z,0
2017-12-25T03:47:53.998Z,0
2017-12-25T03:48:54.023Z,0
2017-12-25T03:49:53.114Z,0
2017-12-25T03:50:53.782Z,0
2017-12-25T03:51:53.577Z,0
2017-12-25T03:52:53.556Z,0
2017-12-25T03:53:53.580Z,0
2017-12-25T03:54:53.836Z,0
2017-12-25T03:55:53.090Z,0
2017-12-25T03:56:53.861Z,0
2017-12-25T03:57:54.131Z,0
2017-12-25T03:58:53.900Z,0
2017-12-25T03:59:54.154Z,0
2017-12-25T04:00:53.660Z,0
2017-12-25T04:01:54.185Z,0
2017-12-25T04:02:53.955Z,0
2017-12-25T04:03:53.700Z,0
2017-12-25T04:04:54.018Z,0
2017-12-25T04:05:53.986Z,0
2017-12-25T04:06:53.992Z,0
2017-12-25T04:07:53.750Z,0
2017-12-25T04:08:54.268Z,0
2017-12-25T04:09:53.776Z,0
2017-12-25T04:10:53.786Z,0
2017-12-25T04:11:54.307Z,0
2017-12-25T04:12:53.572Z,0
2017-12-25T04:13:53.831Z,0
2017-12-25T04:14:54.095Z,0
2017-12-25T04:15:53.852Z,0
2017-12-25T04:16:54.371Z,0
2017-12-25T04:17:54.135Z,0
2017-12-25T04:18:53.896Z,0
2017-12-25T04:19:53.700Z,0
2017-12-25T04:20:54.427Z,0
2017-12-25T04:21:53.931Z,0
2017-12-25T04:22:54.458Z,0
2017-12-25T04:23:54.215Z,0
2017-12-25T04:24:54.475Z,0
2017-12-25T04:25:54.483Z,0
2017-12-25T04:26:54.504Z,0
2017-12-25T04:27:54.517Z,0
2017-12-25T04:28:54.270Z,0
2017-12-25T04:29:54.529Z,0
2017-12-25T04:30:54.547Z,0
2017-12-25T04:31:54.575Z,0
2017-12-25T04:32:54.319Z,0
2017-12-25T04:33:54.589Z,0
2017-12-25T04:34:54.142Z,0
2017-12-25T04:35:54.370Z,0
2017-12-25T04:36:54.132Z,0
2017-12-25T04:37:54.130Z,0
2017-12-25T04:38:54.396Z,0
2017-12-25T04:39:54.664Z,0
2017-12-25T04:40:54.717Z,0
2017-12-25T04:41:53.928Z,0
2017-12-25T04:42:54.696Z,0
2017-12-25T04:43:54.206Z,0
2017-12-25T04:44:54.217Z,0
2017-12-25T04:45:54.227Z,0
2017-12-25T04:46:54.585Z,0
2017-12-25T04:47:54.256Z,0
2017-12-25T04:48:53.762Z,0
2017-12-25T04:49:54.833Z,0
2017-12-25T04:50:54.549Z,0
2017-12-25T04:51:54.556Z,0
2017-12-25T04:52:54.825Z,0
2017-12-25T04:53:55.041Z,0
2017-12-25T04:54:54.844Z,0
2017-12-25T04:55:54.097Z,0
2017-12-25T04:56:54.870Z,0
2017-12-25T04:57:54.640Z,0
2017-12-25T04:58:54.686Z,0
2017-12-25T04:59:54.407Z,0
2017-12-25T05:00:54.416Z,0
2017-12-25T05:01:54.436Z,0
2017-12-25T05:02:54.696Z,0
2017-12-25T05:03:54.979Z,0
2017-12-25T05:04:54.769Z,0
2017-12-25T05:05:54.765Z,0
2017-12-25T05:06:54.239Z,0
2017-12-25T05:07:54.511Z,0
2017-12-25T05:08:55.043Z,0
2017-12-25T05:09:55.034Z,0
2017-12-25T05:10:54.801Z,0
2017-12-25T05:11:55.090Z,0
2017-12-25T05:12:54.831Z,0
2017-12-25T05:13:54.603Z,0
2017-12-25T05:14:54.674Z,0
2017-12-25T05:15:55.112Z,0
2017-12-25T05:16:54.875Z,0
2017-12-25T05:17:55.149Z,0
2017-12-25T05:18:55.160Z,0
2017-12-25T05:19:54.964Z,0
2017-12-25T05:20:55.173Z,0
2017-12-25T05:21:55.196Z,0
2017-12-25T05:22:54.957Z,0
2017-12-25T05:23:54.968Z,0
2017-12-25T05:24:55.230Z,0
2017-12-25T05:25:54.998Z,0
2017-12-25T05:26:55.256Z,0
2017-12-25T05:27:55.017Z,0
2017-12-25T05:28:55.287Z,0
2017-12-25T05:29:54.893Z,0
2017-12-25T05:30:55.054Z,0
2017-12-25T05:31:54.947Z,0
2017-12-25T05:32:55.335Z,0
2017-12-25T05:33:55.094Z,0
2017-12-25T05:34:55.175Z,0
2017-12-25T05:35:55.380Z,0
2017-12-25T05:36:55.389Z,0
2017-12-25T05:37:55.397Z,0
2017-12-25T05:38:54.903Z,0
2017-12-25T05:39:54.935Z,0
2017-12-25T05:40:54.929Z,0
2017-12-25T05:41:55.452Z,0
2017-12-25T05:42:55.484Z,0
2017-12-25T05:43:55.218Z,0
2017-12-25T05:44:55.235Z,0
2017-12-25T05:45:55.502Z,0
2017-12-25T05:46:55.135Z,0
2017-12-25T05:47:55.275Z,0
2017-12-25T05:48:55.545Z,0
2017-12-25T05:49:55.347Z,0
2017-12-25T05:50:55.574Z,0
2017-12-25T05:51:55.320Z,0
2017-12-25T05:52:55.360Z,0
2017-12-25T05:53:55.096Z,0
2017-12-25T05:54:55.118Z,0
2017-12-25T05:55:55.641Z,0
2017-12-25T05:56:55.388Z,0
2017-12-25T05:57:55.676Z,0
2017-12-25T05:58:55.151Z,0
2017-12-25T05:59:55.674Z,0
2017-12-25T06:00:55.181Z,0
2017-12-25T06:01:55.449Z,0
2017-12-25T06:02:55.718Z,0
2017-12-25T06:03:55.734Z,0
2017-12-25T06:04:55.281Z,0
2017-12-25T06:05:55.760Z,0
2017-12-25T06:06:55.514Z,0
2017-12-25T06:07:55.294Z,0
2017-12-25T06:08:55.287Z,0
2017-12-25T06:09:55.814Z,0
2017-12-25T06:10:55.315Z,0
2017-12-25T06:11:55.323Z,0
2017-12-25T06:12:55.843Z,0
2017-12-25T06:13:55.611Z,0
2017-12-25T06:14:55.620Z,0
2017-12-25T06:15:55.371Z,0
2017-12-25T06:16:55.644Z,0
2017-12-25T06:17:55.653Z,0
2017-12-25T06:18:55.678Z,0
2017-12-25T06:19:55.940Z,0
2017-12-25T06:20:55.438Z,0
2017-12-25T06:21:55.701Z,0
2017-12-25T06:22:55.974Z,0
2017-12-25T06:23:55.218Z,0
2017-12-25T06:24:55.998Z,0
2017-12-25T06:25:55.698Z,0
2017-12-25T06:26:55.768Z,0
2017-12-25T06:27:56.034Z,0
2017-12-25T06:28:56.155Z,0
2017-12-25T06:29:55.809Z,0
2017-12-25T06:30:55.821Z,0
2017-12-25T06:31:56.082Z,0
2017-12-25T06:32:56.101Z,0
2017-12-25T06:33:55.855Z,0
2017-12-25T06:34:55.880Z,0
2017-12-25T06:35:55.879Z,0
2017-12-25T06:36:55.383Z,0
2017-12-25T06:37:56.167Z,0
2017-12-25T06:38:56.222Z,0
2017-12-25T06:39:55.677Z,0
2017-12-25T06:40:56.189Z,0
2017-12-25T06:41:56.201Z,0
2017-12-25T06:42:55.978Z,0
2017-12-25T06:43:56.233Z,0
2017-12-25T06:44:55.998Z,0
2017-12-25T06:45:56.006Z,0
2017-12-25T06:46:56.021Z,0
2017-12-25T06:47:56.400Z,0
2017-12-25T06:48:55.795Z,0
2017-12-25T06:49:56.308Z,0
2017-12-25T06:50:56.111Z,0
2017-12-25T06:51:56.332Z,0
2017-12-25T06:52:55.604Z,0
2017-12-25T06:53:55.896Z,0
2017-12-25T06:54:56.112Z,0
2017-12-25T06:55:55.884Z,0
2017-12-25T06:56:55.884Z,0
2017-12-25T06:57:55.895Z,0
2017-12-25T06:58:56.157Z,0
2017-12-25T06:59:56.436Z,0
2017-12-25T07:00:56.447Z,0
2017-12-25T07:01:56.455Z,0
2017-12-25T07:02:56.476Z,0
2017-12-25T07:03:56.227Z,0
2017-12-25T07:04:56.489Z,0
2017-12-25T07:05:56.256Z,0
2017-12-25T07:06:56.539Z,0
2017-12-25T07:07:56.285Z,5
2017-12-25T07:08:56.089Z,5
2017-12-25T07:09:56.326Z,5
2017-12-25T07:10:56.316Z,5
2017-12-25T07:11:56.078Z,5
2017-12-25T07:12:56.338Z,5
2017-12-25T07:13:56.604Z,5
2017-12-25T07:14:56.627Z,5
2017-12-25T07:15:56.130Z,5
2017-12-25T07:16:56.155Z,5
2017-12-25T07:17:56.152Z,5
2017-12-25T07:18:56.212Z,5
2017-12-25T07:19:56.686Z,10
2017-12-25T07:20:56.438Z,10
2017-12-25T07:21:56.210Z,10
2017-12-25T07:22:56.724Z,10
2017-12-25T07:23:56.482Z,10
2017-12-25T07:24:56.548Z,10
2017-12-25T07:25:56.257Z,10
2017-12-25T07:26:56.525Z,10
2017-12-25T07:27:56.544Z,15
2017-12-25T07:28:56.800Z,15
2017-12-25T07:29:56.817Z,15
2017-12-25T07:30:56.820Z,15
2017-12-25T07:31:56.851Z,15
2017-12-25T07:32:56.857Z,15
2017-12-25T07:33:56.865Z,15
2017-12-25T07:34:56.632Z,20
2017-12-25T07:35:56.415Z,20
2017-12-25T07:36:56.907Z,20
2017-12-25T07:37:56.909Z,20
2017-12-25T07:38:56.912Z,25
2017-12-25T07:39:56.482Z,25
2017-12-25T07:40:56.961Z,25
2017-12-25T07:41:56.974Z,25
2017-12-25T07:42:56.473Z,30
2017-12-25T07:43:56.750Z,30
2017-12-25T07:44:56.758Z,30
2017-12-25T07:45:57.020Z,30
2017-12-25T07:46:56.777Z,30
2017-12-25T07:47:57.059Z,30
2017-12-25T07:48:57.060Z,30
2017-12-25T07:49:56.830Z,30
2017-12-25T07:50:56.335Z,35
2017-12-25T07:51:56.594Z,35
2017-12-25T07:52:56.603Z,35
2017-12-25T07:53:56.867Z,35
2017-12-25T07:54:57.036Z,40
2017-12-25T07:55:57.147Z,45
2017-12-25T07:56:57.181Z,45
2017-12-25T07:57:57.196Z,50
2017-12-25T07:58:56.682Z,50
2017-12-25T07:59:56.962Z,50
2017-12-25T08:00:56.961Z,50
2017-12-25T08:01:56.978Z,55
2017-12-25T08:02:57.242Z,55
2017-12-25T08:03:56.505Z,55
2017-12-25T08:04:57.280Z,60
2017-12-25T08:05:57.035Z,60
2017-12-25T08:06:56.799Z,60
2017-12-25T08:07:56.301Z,60
2017-12-25T08:08:57.084Z,65
2017-12-25T08:09:57.136Z,70
2017-12-25T08:10:57.100Z,75
2017-12-25T08:11:56.870Z,75
2017-12-25T08:12:57.138Z,75
2017-12-25T08:13:57.145Z,80
2017-12-25T08:14:56.899Z,85
2017-12-25T08:15:57.416Z,90
2017-12-25T08:16:57.435Z,95
2017-12-25T08:17:57.198Z,100
2017-12-25T08:18:56.963Z,105
2017-12-25T08:19:57.227Z,100
2017-12-25T08:20:57.363Z,95
2017-12-25T08:21:57.002Z,95
2017-12-25T08:22:57.015Z,95
2017-12-25T08:23:57.285Z,100
2017-12-25T08:24:57.093Z,100
2017-12-25T08:25:57.573Z,105
2017-12-25T08:26:57.322Z,105
2017-12-25T08:27:57.342Z,110
2017-12-25T08:28:56.839Z,115
2017-12-25T08:29:57.147Z,115
2017-12-25T08:30:57.639Z,120
2017-12-25T08:31:57.136Z,115
2017-12-25T08:32:57.399Z,115
2017-12-25T08:33:57.442Z,110
2017-12-25T08:34:57.436Z,110
2017-12-25T08:35:57.704Z,110
2017-12-25T08:36:57.202Z,115
2017-12-25T08:37:57.512Z,125
2017-12-25T08:38:57.236Z,125
2017-12-25T08:39:57.548Z,130
2017-12-25T08:40:57.765Z,140
2017-12-25T08:41:57.529Z,140
2017-12-25T08:42:57.814Z,140
2017-12-25T08:43:57.312Z,140
2017-12-25T08:44:57.325Z,145
2017-12-25T08:45:57.589Z,145
2017-12-25T08:46:57.856Z,150
2017-12-25T08:47:57.608Z,155
2017-12-25T08:48:57.622Z,160
2017-12-25T08:49:57.387Z,160
2017-12-25T08:50:57.660Z,170
2017-12-25T08:51:57.921Z,175
2017-12-25T08:52:57.696Z,180
2017-12-25T08:53:57.443Z,185
2017-12-25T08:54:58.010Z,190
2017-12-25T08:55:57.977Z,195
2017-12-25T08:56:57.484Z,190
2017-12-25T08:57:57.751Z,190
2017-12-25T08:58:58.016Z,190
2017-12-25T08:59:58.130Z,190
2017-12-25T09:00:58.044Z,185
2017-12-25T09:01:57.556Z,170
2017-12-25T09:02:57.827Z,155
2017-12-25T09:03:57.841Z,150
2017-12-25T09:04:57.858Z,145
2017-12-25T09:05:57.864Z,140
2017-12-25T09:06:58.130Z,150
2017-12-25T09:07:57.388Z,155
2017-12-25T09:08:57.662Z,160
2017-12-25T09:09:57.966Z,165
2017-12-25T09:10:57.680Z,165
2017-12-25T09:11:57.945Z,160
2017-12-25T09:12:57.710Z,160
2017-12-25T09:13:58.243Z,170
2017-12-25T09:14:58.235Z,170
2017-12-25T09:15:58.005Z,160
2017-12-25T09:16:57.771Z,160
2017-12-25T09:17:57.774Z,170
2017-12-25T09:18:57.793Z,190
2017-12-25T09:19:58.622Z,200
2017-12-25T09:20:58.325Z,200
2017-12-25T09:21:58.085Z,185
2017-12-25T09:22:58.348Z,180
2017-12-25T09:23:58.121Z,175
2017-12-25T09:24:58.432Z,180
2017-12-25T09:25:57.634Z,200
2017-12-25T09:26:58.194Z,195
2017-12-25T09:27:58.167Z,200
2017-12-25T09:28:58.189Z,215
2017-12-25T09:29:58.460Z,210
2017-12-25T09:30:57.704Z,225
2017-12-25T09:31:57.721Z,220
2017-12-25T09:32:57.989Z,210
2017-12-25T09:33:58.517Z,235
2017-12-25T09:34:58.270Z,255
2017-12-25T09:35:58.538Z,255
2017-12-25T09:36:58.545Z,240
2017-12-25T09:37:58.561Z,245
2017-12-25T09:38:58.345Z,240
2017-12-25T09:39:58.406Z,240
2017-12-25T09:40:58.105Z,240
2017-12-25T09:41:58.359Z,240
2017-12-25T09:42:58.651Z,245
2017-12-25T09:43:58.149Z,245
2017-12-25T09:44:58.421Z,245
2017-12-25T09:45:58.419Z,245
2017-12-25T09:46:58.437Z,250
2017-12-25T09:47:58.452Z,245
2017-12-25T09:48:58.718Z,245
2017-12-25T09:49:58.220Z,245
2017-12-25T09:50:58.748Z,245
2017-12-25T09:51:58.507Z,245
2017-12-25T09:52:58.280Z,245
2017-12-25T09:53:58.537Z,370
2017-12-25T09:54:58.605Z,835
2017-12-25T09:55:58.570Z,1135
2017-12-25T09:56:58.585Z,1155
2017-12-25T09:57:58.347Z,1145
2017-12-25T09:58:58.919Z,1170
2017-12-25T09:59:58.689Z,1190
2017-12-25T10:00:58.646Z,1190
2017-12-25T10:01:58.933Z,1170
2017-12-25T10:02:58.451Z,1200
2017-12-25T10:03:58.945Z,1235
2017-12-25T10:04:58.704Z,1195
2017-12-25T10:05:58.975Z,1185
2017-12-25T10:06:58.493Z,1270
2017-12-25T10:07:58.767Z,1260
2017-12-25T10:08:59.031Z,1230
2017-12-25T10:09:58.870Z,1250
2017-12-25T10:10:58.825Z,1275
2017-12-25T10:11:58.585Z,1285
2017-12-25T10:12:58.619Z,1300
2017-12-25T10:13:58.877Z,1275
2017-12-25T10:14:58.901Z,1270
2017-12-25T10:15:59.178Z,1310
2017-12-25T10:16:58.957Z,1305
2017-12-25T10:17:59.288Z,1330
2017-12-25T10:18:58.980Z,1355
2017-12-25T10:19:58.998Z,1395
2017-12-25T10:20:58.840Z,1410
2017-12-25T10:21:58.803Z,1380
2017-12-25T10:22:59.326Z,1385
2017-12-25T10:23:59.095Z,1425
2017-12-25T10:24:59.164Z,1480
2017-12-25T10:25:59.390Z,1525
2017-12-25T10:26:58.910Z,1495
2017-12-25T10:27:59.192Z,1535
2017-12-25T10:28:59.211Z,1550
2017-12-25T10:29:59.487Z,1545
2017-12-25T10:30:59.510Z,1600
2017-12-25T10:31:59.282Z,1575
2017-12-25T10:32:59.310Z,1495
2017-12-25T10:33:59.582Z,1510
2017-12-25T10:34:59.152Z,1620
2017-12-25T10:35:59.395Z,1555
2017-12-25T10:36:59.411Z,1595
2017-12-25T10:37:59.434Z,1605
2017-12-25T10:38:59.488Z,1535
2017-12-25T10:39:59.283Z,1490
2017-12-25T10:40:59.508Z,1615
2017-12-25T10:41:59.799Z,1780
2017-12-25T10:42:59.559Z,1560
2017-12-25T10:43:59.331Z,1610
2017-12-25T10:44:59.872Z,1745
2017-12-25T10:45:59.391Z,1645
2017-12-25T10:46:59.415Z,1805
2017-12-25T10:47:59.188Z,1930
2017-12-25T10:48:59.730Z,2050
2017-12-25T10:49:59.768Z,1690
2017-12-25T10:50:59.776Z,1800
2017-12-25T10:51:59.564Z,1835
2017-12-25T10:52:59.072Z,1590
2017-12-25T10:54:00.128Z,1315
2017-12-25T10:55:00.183Z,1035
2017-12-25T10:55:59.662Z,1005
2017-12-25T10:57:00.199Z,1155
2017-12-25T10:57:59.962Z,1145
2017-12-25T10:58:59.995Z,950
2017-12-25T11:00:00.044Z,860
2017-12-25T11:00:59.543Z,840
2017-12-25T11:01:59.573Z,855
2017-12-25T11:02:59.859Z,920
2017-12-25T11:03:59.876Z,1000
2017-12-25T11:05:00.427Z,1030
2017-12-25T11:05:59.958Z,1010
2017-12-25T11:07:00.218Z,1010
2017-12-25T11:08:00.255Z,1040
2017-12-25T11:09:00.270Z,1150
2017-12-25T11:10:00.096Z,1425
2017-12-25T11:11:00.579Z,1845
2017-12-25T11:12:00.104Z,1905
2017-12-25T11:13:00.196Z,1770
2017-12-25T11:14:00.670Z,1775
2017-12-25T11:15:00.188Z,1845
2017-12-25T11:16:00.215Z,1830
2017-12-25T11:17:00.509Z,1750
2017-12-25T11:18:00.793Z,1650
2017-12-25T11:19:00.812Z,1580
2017-12-25T11:20:00.594Z,1670
2017-12-25T11:21:00.887Z,1725
2017-12-25T11:22:00.643Z,1610
2017-12-25T11:23:00.939Z,1615
2017-12-25T11:24:01.009Z,1845
2017-12-25T11:25:00.788Z,1975
2017-12-25T11:26:00.772Z,1865
2017-12-25T11:27:00.805Z,1680
2017-12-25T11:28:00.571Z,1515
2017-12-25T11:29:00.851Z,1475
2017-12-25T11:30:00.626Z,1325
2017-12-25T11:31:00.658Z,1270
2017-12-25T11:32:00.936Z,1280
2017-12-25T11:33:00.975Z,1345
2017-12-25T11:34:01.001Z,1405
2017-12-25T11:35:00.770Z,1460
2017-12-25T11:36:01.065Z,1580
2017-12-25T11:37:01.095Z,1735
2017-12-25T11:38:01.129Z,1730
2017-12-25T11:39:01.157Z,1565
2017-12-25T11:40:01.503Z,1675
2017-12-25T11:41:01.208Z,1915
2017-12-25T11:42:01.512Z,1965
2017-12-25T11:43:01.027Z,1975
2017-12-25T11:44:01.563Z,1915
2017-12-25T11:45:01.714Z,1925
2017-12-25T11:46:01.370Z,1965
2017-12-25T11:47:01.415Z,1980
2017-12-25T11:48:01.700Z,1975
2017-12-25T11:49:01.216Z,1960
2017-12-25T11:50:01.506Z,1950
2017-12-25T11:51:01.273Z,2030
2017-12-25T11:52:01.817Z,2125
2017-12-25T11:53:01.341Z,2125
2017-12-25T11:54:01.876Z,2010
2017-12-25T11:55:01.919Z,1885
2017-12-25T11:56:01.937Z,1975
2017-12-25T11:57:01.760Z,2035
2017-12-25T11:58:01.553Z,1915
2017-12-25T11:59:02.046Z,2195
2017-12-25T12:00:02.069Z,2185
2017-12-25T12:01:02.108Z,2120
2017-12-25T12:02:02.138Z,2280
2017-12-25T12:03:02.160Z,2210
2017-12-25T12:04:02.216Z,2100
2017-12-25T12:05:02.229Z,2120
2017-12-25T12:06:02.044Z,2045
2017-12-25T12:07:01.800Z,2075
2017-12-25T12:08:01.573Z,2285
2017-12-25T12:09:02.359Z,2325
2017-12-25T12:10:01.906Z,2340
2017-12-25T12:11:02.173Z,2220
2017-12-25T12:12:02.203Z,2125
2017-12-25T12:13:01.994Z,2255
2017-12-25T12:14:02.164Z,2330
2017-12-25T12:15:01.799Z,2285
2017-12-25T12:16:02.081Z,2305
2017-12-25T12:17:01.871Z,2325
2017-12-25T12:18:02.146Z,2245
2017-12-25T12:19:02.435Z,2255
2017-12-25T12:20:02.217Z,2300
2017-12-25T12:21:02.754Z,2175
2017-12-25T12:22:02.536Z,2070
2017-12-25T12:23:02.821Z,2235
2017-12-25T12:24:02.343Z,2305
2017-12-25T12:25:02.881Z,2310
2017-12-25T12:26:02.686Z,2295
2017-12-25T12:27:02.442Z,2280
2017-12-25T12:28:02.476Z,2255
2017-12-25T12:29:02.613Z,2280
2017-12-25T12:30:02.797Z,2240
2017-12-25T12:31:02.846Z,2310
2017-12-25T12:32:03.115Z,2310
2017-12-25T12:33:03.144Z,2255
2017-12-25T12:34:02.927Z,2270
2017-12-25T12:35:02.708Z,2170
2017-12-25T12:36:02.995Z,2155
2017-12-25T12:37:03.221Z,2195
2017-12-25T12:38:03.316Z,2300
2017-12-25T12:39:03.395Z,2335
2017-12-25T12:40:02.882Z,2250
2017-12-25T12:41:03.427Z,2325
2017-12-25T12:42:02.952Z,2405
2017-12-25T12:43:03.228Z,2360
2017-12-25T12:44:03.318Z,2240
2017-12-25T12:45:03.067Z,2230
2017-12-25T12:46:03.632Z,2295
2017-12-25T12:47:02.858Z,2295
2017-12-25T12:48:03.159Z,2320
2017-12-25T12:49:03.226Z,2270
2017-12-25T12:50:03.724Z,2245
2017-12-25T12:51:03.788Z,2295
2017-12-25T12:52:03.276Z,2275
2017-12-25T12:53:03.312Z,2190
2017-12-25T12:54:03.602Z,2095
2017-12-25T12:55:03.907Z,2225
2017-12-25T12:56:03.666Z,2355
2017-12-25T12:57:03.718Z,2250
2017-12-25T12:58:03.984Z,2245
2017-12-25T12:59:03.561Z,2315
2017-12-25T13:00:03.299Z,2295
2017-12-25T13:01:03.590Z,2260
2017-12-25T13:02:04.113Z,2315
2017-12-25T13:03:03.670Z,2315
2017-12-25T13:04:04.185Z,2260
2017-12-25T13:05:03.972Z,2345
2017-12-25T13:06:04.128Z,2360
2017-12-25T13:07:04.039Z,2235
2017-12-25T13:08:04.066Z,2235
2017-12-25T13:09:04.104Z,2220
2017-12-25T13:10:04.394Z,2225
2017-12-25T13:11:04.417Z,2045
2017-12-25T13:12:04.450Z,1565
2017-12-25T13:13:04.440Z,1090
2017-12-25T13:14:04.273Z,620
2017-12-25T13:15:04.522Z,275
2017-12-25T13:16:04.543Z,175
2017-12-25T13:17:04.592Z,170
2017-12-25T13:18:04.471Z,170
2017-12-25T13:19:04.428Z,165
2017-12-25T13:20:04.461Z,170
2017-12-25T13:21:04.485Z,170
2017-12-25T13:22:04.515Z,165
2017-12-25T13:23:04.798Z,165
2017-12-25T13:24:04.833Z,165
2017-12-25T13:25:04.860Z,160
2017-12-25T13:26:04.891Z,160
2017-12-25T13:27:04.645Z,160
2017-12-25T13:28:04.688Z,160
2017-12-25T13:29:04.761Z,155
2017-12-25T13:30:04.745Z,155
2017-12-25T13:31:05.024Z,150
2017-12-25T13:32:05.048Z,150
2017-12-25T13:33:04.554Z,150
2017-12-25T13:34:05.088Z,150
2017-12-25T13:35:04.857Z,145
2017-12-25T13:36:04.633Z,145
2017-12-25T13:37:04.915Z,145
2017-12-25T13:38:04.685Z,145
2017-12-25T13:39:05.210Z,140
2017-12-25T13:40:04.979Z,140
2017-12-25T13:41:05.266Z,140
2017-12-25T13:42:04.778Z,140
2017-12-25T13:43:05.305Z,140
2017-12-25T13:44:05.136Z,135
2017-12-25T13:45:05.360Z,135
2017-12-25T13:46:04.891Z,135
2017-12-25T13:47:05.155Z,135
2017-12-25T13:48:05.425Z,135
2017-12-25T13:49:05.456Z,130
2017-12-25T13:50:05.468Z,130
2017-12-25T13:51:05.242Z,130
2017-12-25T13:52:05.010Z,130
2017-12-25T13:53:05.278Z,130
2017-12-25T13:54:05.551Z,125
2017-12-25T13:55:05.327Z,125
2017-12-25T13:56:05.602Z,125
2017-12-25T13:57:05.372Z,125
2017-12-25T13:58:05.382Z,125
2017-12-25T13:59:05.713Z,120
2017-12-25T14:00:05.172Z,120
2017-12-25T14:01:05.715Z,120
2017-12-25T14:02:05.721Z,120
2017-12-25T14:03:05.741Z,115
2017-12-25T14:04:05.784Z,115
2017-12-25T14:05:05.787Z,115
2017-12-25T14:06:05.293Z,115
2017-12-25T14:07:05.314Z,115
2017-12-25T14:08:05.593Z,110
2017-12-25T14:09:05.381Z,110
2017-12-25T14:10:05.888Z,110
2017-12-25T14:11:05.646Z,110
2017-12-25T14:12:05.921Z,110